Alviso, California
Current Conditions -  °F | °C
As of 6:56 PM on Wednesday 22 Oct 2014 (Local Time) from KNUQ Reporting Station
Clear Clear  
Wind Chill: 66°   Ceiling: Unl
Heat Index: 66°   Visibility: 10mi
Dew Point: 58°   Wind: 7mph
Humidity: 75%   Direction: 340°NNW
Pressure: 30.03"   Gusts: NA
Location:  37.43°N, 121.97°W
Report Text: KNUQ 230156Z 34006KT 10SM CLR 19/14 A3003 RMK AO2 SLP173 T01890144
Loading
Personal Weather Stations






























Interactive Weather Map
Tropical Storm Tracking
New forecast layout! Learn more

10-Day Weather Forecast

Advertisements
Track Severe Weather on mobile